Airfield :
LOGIN :

Register | Disclaimer

   EN    FR    IT 

 










Legend :    VFR   Marginal VFR   IFR   Intensive IFR   Very Intensive IFR
Visi :
Ceiling :
>= 8 km
>= 3000ft
5 to 8 km
1000 to 3000 ft
1500m to 5 km
500 to 1000 ft
800 to 1500m
200 to 500 ft
< 800m
< 200 ft
Symbols :   Thunderstorms  Fog  Heavy snow  Heavy precipitations  Wind > 20 kt
SIGMETs :     Misc.  Thunderstorms  Icing  Turbulence  Mountain Waves  Volcanic Ashes






- Airport Elevation : 348 ft
- IATA code : STN


EGSS - London Stansted

CURRENT METAR :
  • 240750Z AUTO 15005KT 9999 NCD M02/M03 Q0998

EXPIRED METARs :
  • 240720Z AUTO 14004KT 9999 NCD M03/M03 Q0998
  • 240650Z AUTO 15004KT 9999 NCD M03/M03 Q0998
  • 240620Z AUTO 17003KT 9999 NCD M03/M04 Q0998
  • 240550Z AUTO 22004KT 9999 NCD M03/M04 Q0998
  • 240520Z AUTO 21003KT 8000 NCD M04/M04 Q0998

TAF TAF EGSS
Valid from the 24 at 06:00 until the 25 at 12:00 UTC


240457Z 2406/2512 15003KT 9999 FEW030
PROB30 2406/2409 2000 BR
BECMG 2409/2412 09010KT
BECMG 2411/2413 5000 -RASN BKN006
TEMPO 2411/2422 3000 -SN BKN004
PROB40
TEMPO 2412/2421 1000 SN BKN001
BECMG 2420/2422 01012KT 9999 NSW FEW010
PROB30
TEMPO 2420/2423 35015G25KT
BECMG 2502/2505 23005KT
PROB40 2502/2509 2000 BR
ATIS : +44 1279 669 325



MET'MAP, your aeronautical weather chart ! - Copyright ORBIFLY December 2007 - Disclaimer

ORBIFLY MET'MAP TEAM :

Programming & Development : Alexandra Zaïnal
Concept & original design : Baudouin d'Aumeries
Assistance for programming : Marc-Olivier Méhu
Technical & hardware support : Manuel Goepfert

Contact : metmap@orbifly.com




SOURCES & CREDITS :

   NOAA